Time;durP1;ratioP1;P1;durP2;ratioP2;P2;SDS_P1;SDS_P2;PMS_P1;PMS_P2;Temp;Humidity;BMP_temperature;BMP_pressure;BME280_temperature;BME280_humidity;BME280_pressure;Samples;Min_cycle;Max_cycle;Signal;HPM_P1;HPM_P2
2023/12/24 00:02:08;;;;;;;0.52;0.52;;;;;;;-2.43;79.39;98704.09;5064968;28;20035;-70
2023/12/24 00:04:34;;;;;;;0.60;0.60;;;;;;;-2.36;78.98;98710.97;5047304;28;20055;-69
2023/12/24 00:06:59;;;;;;;0.60;0.60;;;;;;;-2.31;78.16;98701.72;5065231;28;20465;-70
2023/12/24 00:09:24;;;;;;;0.50;0.50;;;;;;;-2.18;77.58;98719.72;5065281;28;20033;-70
2023/12/24 00:11:50;;;;;;;0.60;0.60;;;;;;;-2.25;76.51;98698.41;5047147;28;20048;-70
2023/12/24 00:14:15;;;;;;;0.60;0.60;;;;;;;-2.43;75.28;98694.75;5046873;28;20029;-70
2023/12/24 00:16:41;;;;;;;0.50;0.50;;;;;;;-2.52;75.07;98702.22;5065133;28;20036;-70
2023/12/24 00:19:07;;;;;;;0.60;0.60;;;;;;;-2.64;74.86;98695.25;5047092;28;20025;-70
2023/12/24 00:21:32;;;;;;;0.55;0.55;;;;;;;-2.59;75.21;98713.13;5064952;28;20085;-70
2023/12/24 00:23:57;;;;;;;0.50;0.50;;;;;;;-2.65;75.39;98699.47;5064793;28;20045;-70
2023/12/24 00:26:23;;;;;;;0.60;0.60;;;;;;;-2.58;74.94;98703.00;5064932;28;20024;-70
2023/12/24 00:28:50;;;;;;;0.50;0.50;;;;;;;-2.54;74.97;98709.00;5064550;28;20053;-70
2023/12/24 00:31:16;;;;;;;0.55;0.55;;;;;;;-2.41;74.36;98704.97;5046818;28;20435;-70
2023/12/24 00:33:41;;;;;;;0.50;0.50;;;;;;;-2.41;74.28;98700.72;5046649;28;20092;-69
2023/12/24 00:36:07;;;;;;;0.60;0.60;;;;;;;-2.37;73.82;98704.19;5046860;28;20017;-69
2023/12/24 00:38:32;;;;;;;0.50;0.50;;;;;;;-2.38;73.71;98710.94;5046711;28;20027;-70
2023/12/24 00:40:57;;;;;;;0.60;0.60;;;;;;;-2.46;74.34;98714.19;5046859;28;20025;-70
2023/12/24 00:43:23;;;;;;;0.60;0.60;;;;;;;-2.53;74.87;98703.06;5046447;28;20025;-70
2023/12/24 00:45:49;;;;;;;0.60;0.60;;;;;;;-2.48;74.86;98706.56;5064632;28;20017;-70
2023/12/24 00:48:14;;;;;;;0.60;0.60;;;;;;;-2.43;74.73;98714.25;5064574;28;20084;-70
2023/12/24 00:50:40;;;;;;;0.60;0.60;;;;;;;-2.44;74.65;98698.13;5064761;28;20023;-70
2023/12/24 00:53:05;;;;;;;0.52;0.52;;;;;;;-2.43;74.86;98694.75;5046635;28;20107;-70
2023/12/24 00:55:30;;;;;;;0.50;0.50;;;;;;;-2.43;74.35;98696.47;5064567;28;20460;-70
2023/12/24 00:57:56;;;;;;;0.50;0.50;;;;;;;-2.44;73.63;98695.59;5046976;28;20362;-70
2023/12/24 01:00:21;;;;;;;0.60;0.60;;;;;;;-2.43;73.23;98684.59;5068515;28;20055;-70
2023/12/24 01:02:46;;;;;;;0.55;0.55;;;;;;;-2.50;72.75;98668.41;5068372;28;20021;-71
2023/12/24 01:05:12;;;;;;;0.60;0.60;;;;;;;-2.43;72.37;98684.59;5050524;28;20029;-69
2023/12/24 01:07:37;;;;;;;0.60;0.60;;;;;;;-2.49;71.94;98689.56;5068709;28;20108;-69
2023/12/24 01:10:03;;;;;;;0.50;0.50;;;;;;;-2.58;71.80;98702.13;5068518;28;20032;-70
2023/12/24 01:12:28;;;;;;;0.50;0.50;;;;;;;-2.75;71.92;98688.28;5050211;28;20088;-70
2023/12/24 01:14:53;;;;;;;0.50;0.50;;;;;;;-2.77;71.71;98694.19;5068217;28;20043;-69
2023/12/24 01:17:19;;;;;;;0.60;0.60;;;;;;;-2.77;71.58;98699.25;5050764;28;20029;-68
2023/12/24 01:19:44;;;;;;;0.50;0.50;;;;;;;-2.89;71.54;98687.22;5068459;28;20037;-70
2023/12/24 01:22:10;;;;;;;0.50;0.50;;;;;;;-2.83;71.33;98701.69;5050274;28;20056;-70
2023/12/24 01:24:35;;;;;;;0.55;0.55;;;;;;;-2.87;70.64;98698.25;5068122;28;20032;-70
2023/12/24 01:27:00;;;;;;;0.60;0.60;;;;;;;-2.92;70.40;98694.75;5068147;28;20025;-68
2023/12/24 01:29:26;;;;;;;0.68;0.68;;;;;;;-3.00;70.49;98692.94;5068047;28;20167;-70
2023/12/24 01:31:51;;;;;;;0.60;0.60;;;;;;;-3.03;69.97;98695.41;5068040;28;20021;-69
2023/12/24 01:34:16;;;;;;;1.15;1.13;;;;;;;-3.10;69.79;98680.91;5068004;28;20021;-70
2023/12/24 01:36:42;;;;;;;0.50;0.50;;;;;;;-3.04;69.53;98703.88;5050024;28;20035;-70
2023/12/24 01:39:10;;;;;;;0.57;0.57;;;;;;;-3.08;69.84;98709.69;5049751;28;20017;-70
2023/12/24 01:41:35;;;;;;;0.52;0.52;;;;;;;-3.13;69.90;98699.47;5049716;28;20029;-70
2023/12/24 01:44:01;;;;;;;0.60;0.60;;;;;;;-3.03;69.64;98717.41;5049705;28;20078;-70
2023/12/24 01:46:27;;;;;;;0.52;0.52;;;;;;;-3.03;69.32;98695.41;5067686;28;20079;-70
2023/12/24 01:48:54;;;;;;;1.48;1.38;;;;;;;-2.82;68.32;98699.19;5067657;28;20025;-70
2023/12/24 01:51:21;;;;;;;0.60;0.60;;;;;;;-2.85;67.96;98691.50;5049423;28;20044;-70
2023/12/24 01:53:50;;;;;;;0.60;0.60;;;;;;;-3.01;68.09;98680.22;5067597;28;20055;-71
2023/12/24 01:56:17;;;;;;;0.60;0.60;;;;;;;-2.93;67.76;98690.50;5067372;28;20079;-70
2023/12/24 01:58:42;;;;;;;0.60;0.60;;;;;;;-3.02;67.88;98683.59;5067313;28;20051;-70
2023/12/24 02:01:08;;;;;;;0.60;0.60;;;;;;;-2.96;67.92;98695.53;5067439;28;20025;-70
2023/12/24 02:03:34;;;;;;;0.60;0.60;;;;;;;-2.83;67.17;98694.06;5066951;28;20064;-70
2023/12/24 02:06:02;;;;;;;0.60;0.60;;;;;;;-2.75;66.72;98688.28;5049119;28;20017;-70
2023/12/24 02:08:28;;;;;;;0.60;0.60;;;;;;;-2.63;66.13;98702.03;5067128;28;20267;-70
2023/12/24 02:10:54;;;;;;;0.60;0.60;;;;;;;-2.74;66.37;98687.47;5066498;28;20025;-70
2023/12/24 02:13:20;;;;;;;0.60;0.60;;;;;;;-2.72;66.35;98681.56;5066977;28;20084;-70
2023/12/24 02:15:47;;;;;;;0.60;0.60;;;;;;;-2.70;66.67;98695.16;5066989;28;20025;-71
2023/12/24 02:18:13;;;;;;;0.50;0.50;;;;;;;-2.72;66.69;98690.06;5066744;28;20029;-71
2023/12/24 02:20:38;;;;;;;0.60;0.60;;;;;;;-2.70;66.21;98695.16;5049058;28;20021;-70
2023/12/24 02:23:04;;;;;;;0.60;0.60;;;;;;;-2.66;65.30;98702.84;5066899;28;20024;-69
2023/12/24 02:25:29;;;;;;;0.50;0.50;;;;;;;-2.66;64.90;98700.31;5066835;28;20028;-71
2023/12/24 02:28:19;;;;;;;0.52;0.52;;;;;;;-2.68;64.59;98691.81;5048670;28;20469;-70
2023/12/24 02:30:52;;;;;;;0.50;0.50;;;;;;;-2.63;63.66;98691.88;5066829;28;20049;-70
2023/12/24 02:33:19;;;;;;;0.60;0.60;;;;;;;-2.69;63.67;98682.47;5066630;28;20031;-70
2023/12/24 02:35:46;;;;;;;0.52;0.52;;;;;;;-2.70;63.59;98679.91;5066658;28;20021;-70
2023/12/24 02:38:12;;;;;;;0.50;0.50;;;;;;;-2.72;64.35;98681.56;5066670;28;20032;-70
2023/12/24 02:40:38;;;;;;;0.60;0.60;;;;;;;-2.71;64.34;98679.06;5066450;28;20040;-70
2023/12/24 02:43:03;;;;;;;0.50;0.50;;;;;;;-2.70;64.15;98669.75;5048384;28;20141;-71
2023/12/24 02:45:28;;;;;;;0.60;0.60;;;;;;;-2.79;64.21;98642.50;5066489;28;20020;-71
2023/12/24 02:47:54;;;;;;;0.50;0.50;;;;;;;-2.60;63.81;98666.53;5066584;28;20025;-71
2023/12/24 02:50:19;;;;;;;0.50;0.50;;;;;;;-2.60;63.90;98668.22;5066185;28;20026;-71
2023/12/24 02:52:46;;;;;;;0.50;0.50;;;;;;;-2.62;63.63;98670.75;5066368;28;20081;-72
2023/12/24 02:55:11;;;;;;;0.60;0.60;;;;;;;-2.62;63.07;98663.97;5066420;28;20028;-71
2023/12/24 02:57:36;;;;;;;0.60;0.60;;;;;;;-2.56;62.37;98662.34;5066142;28;20059;-71
2023/12/24 03:00:04;;;;;;;0.60;0.60;;;;;;;-2.53;62.32;98667.50;5066587;28;20025;-70
2023/12/24 03:02:30;;;;;;;0.50;0.50;;;;;;;-2.56;62.29;98665.75;5047928;28;20021;-71
2023/12/24 03:04:55;;;;;;;0.60;0.60;;;;;;;-2.60;62.18;98658.06;5066488;28;20056;-71
2023/12/24 03:07:21;;;;;;;0.50;0.50;;;;;;;-2.64;62.10;98654.59;5066378;28;20094;-71
2023/12/24 03:09:46;;;;;;;0.50;0.50;;;;;;;-2.69;62.95;98661.28;5066091;28;20020;-71
2023/12/24 03:12:12;;;;;;;0.60;0.60;;;;;;;-2.89;62.65;98633.88;5066071;28;20028;-71
2023/12/24 03:14:37;;;;;;;0.60;0.60;;;;;;;-2.88;61.72;98656.75;5065740;28;20097;-71
2023/12/24 03:17:03;;;;;;;0.60;0.60;;;;;;;-2.92;61.29;98649.03;5066232;28;20033;-71
2023/12/24 03:19:31;;;;;;;0.60;0.60;;;;;;;-2.98;61.33;98657.41;5048010;28;20135;-71
2023/12/24 03:21:57;;;;;;;0.60;0.60;;;;;;;-2.99;61.38;98654.00;5064664;28;20028;-71
2023/12/24 03:24:22;;;;;;;0.50;0.50;;;;;;;-3.14;61.99;98643.56;5065868;28;20028;-71
2023/12/24 03:26:47;;;;;;;0.60;0.60;;;;;;;-3.16;61.90;98640.16;5065885;28;20031;-71
2023/12/24 03:29:13;;;;;;;0.60;0.60;;;;;;;-3.12;61.70;98647.88;5065722;28;20076;-72
2023/12/24 03:31:38;;;;;;;0.50;0.50;;;;;;;-3.13;61.42;98647.84;5047803;28;20051;-72
2023/12/24 03:34:03;;;;;;;0.70;0.70;;;;;;;-3.14;61.26;98638.50;5065754;28;20032;-71
2023/12/24 03:36:29;;;;;;;0.60;0.60;;;;;;;-3.24;61.26;98618.03;5065569;28;20032;-70
2023/12/24 03:38:54;;;;;;;0.60;0.60;;;;;;;-3.28;62.08;98628.97;5065536;28;20028;-71
2023/12/24 03:41:20;;;;;;;0.55;0.55;;;;;;;-3.26;62.20;98629.00;5047616;28;20025;-71
2023/12/24 03:43:45;;;;;;;0.60;0.60;;;;;;;-3.20;61.82;98649.41;5065202;28;20025;-72
2023/12/24 03:46:10;;;;;;;0.60;0.60;;;;;;;-3.15;61.30;98631.72;5065493;28;20481;-71
2023/12/24 03:48:37;;;;;;;0.60;0.60;;;;;;;-3.07;60.79;98640.34;5065423;28;20029;-70
2023/12/24 03:51:02;;;;;;;0.60;0.60;;;;;;;-3.04;59.82;98632.78;5065538;28;20043;-71
2023/12/24 03:53:28;;;;;;;0.60;0.60;;;;;;;-2.97;59.51;98630.34;5065218;28;20096;-71
2023/12/24 03:55:54;;;;;;;0.57;0.57;;;;;;;-3.04;59.26;98617.53;5047337;28;20029;-70
2023/12/24 03:58:19;;;;;;;0.60;0.60;;;;;;;-2.95;59.58;98628.66;5064874;28;20035;-70
2023/12/24 04:00:44;;;;;;;0.60;0.60;;;;;;;-2.92;59.20;98626.19;5065242;28;20032;-71
2023/12/24 04:03:10;;;;;;;0.60;0.60;;;;;;;-2.94;59.03;98613.47;5065041;28;20021;-71
2023/12/24 04:05:35;;;;;;;0.50;0.50;;;;;;;-2.93;59.00;98617.72;5047176;28;20029;-70
2023/12/24 04:08:01;;;;;;;0.60;0.60;;;;;;;-2.88;59.39;98617.81;5065185;28;20028;-71
2023/12/24 04:10:26;;;;;;;0.50;0.50;;;;;;;-3.02;58.90;98587.94;5065021;28;20469;-71
2023/12/24 04:12:52;;;;;;;0.60;0.60;;;;;;;-2.89;58.84;98604.25;5065032;28;20025;-71
2023/12/24 04:15:17;;;;;;;0.60;0.60;;;;;;;-2.78;58.77;98614.56;5065160;28;20536;-71
2023/12/24 04:17:42;;;;;;;0.50;0.50;;;;;;;-2.76;58.41;98599.34;5065103;28;20039;-72
2023/12/24 04:20:08;;;;;;;0.60;0.60;;;;;;;-2.68;57.95;98604.56;5046745;28;20024;-70
2023/12/24 04:22:33;;;;;;;0.60;0.60;;;;;;;-2.71;57.47;98585.06;5064788;28;20093;-71
2023/12/24 04:24:59;;;;;;;0.52;0.52;;;;;;;-2.66;57.01;98595.28;5064871;28;20484;-71
2023/12/24 04:27:25;;;;;;;0.60;0.60;;;;;;;-2.76;57.62;98602.75;5064913;28;20020;-72
2023/12/24 04:29:51;;;;;;;0.60;0.60;;;;;;;-2.79;57.79;98600.19;5064915;28;20040;-71
2023/12/24 04:32:18;;;;;;;0.60;0.60;;;;;;;-2.83;57.62;98585.72;5064807;28;20108;-72
2023/12/24 04:34:44;;;;;;;0.60;0.60;;;;;;;-2.86;57.98;98589.06;5064505;28;20029;-71
2023/12/24 04:37:09;;;;;;;0.70;0.70;;;;;;;-2.93;58.93;98597.41;5046985;28;20028;-72
2023/12/24 04:39:35;;;;;;;0.60;0.60;;;;;;;-2.94;58.64;98592.31;5064837;28;20028;-70
2023/12/24 04:42:00;;;;;;;0.60;0.60;;;;;;;-2.97;58.79;98592.25;5064720;28;20025;-71
2023/12/24 04:44:26;;;;;;;0.60;0.60;;;;;;;-3.01;59.18;98594.75;5046751;28;20120;-70
2023/12/24 04:46:51;;;;;;;0.60;0.60;;;;;;;-3.03;59.21;98587.91;5064747;28;20056;-71
2023/12/24 04:49:17;;;;;;;0.60;0.60;;;;;;;-3.20;59.23;98568.19;5064530;28;20308;-71
2023/12/24 04:51:42;;;;;;;0.60;0.60;;;;;;;-3.12;59.19;98579.34;5064815;28;20495;-71
2023/12/24 04:54:08;;;;;;;0.60;0.60;;;;;;;-3.15;59.55;98576.75;5064459;28;20078;-70
2023/12/24 04:56:33;;;;;;;0.60;0.60;;;;;;;-3.16;59.81;98574.16;5064452;28;20025;-71
2023/12/24 04:58:59;;;;;;;0.60;0.60;;;;;;;-3.21;60.28;98568.16;5064367;28;20021;-71
2023/12/24 05:01:25;;;;;;;0.60;0.60;;;;;;;-3.22;60.48;98568.97;5064584;28;20025;-72
2023/12/24 05:03:50;;;;;;;0.60;0.60;;;;;;;-3.22;60.88;98579.13;5064477;28;20025;-71
2023/12/24 05:06:15;;;;;;;0.70;0.70;;;;;;;-3.22;61.16;98584.19;5064631;28;20028;-70
2023/12/24 05:08:41;;;;;;;0.60;0.60;;;;;;;-3.19;61.10;98569.00;5064303;28;20024;-71
2023/12/24 05:11:07;;;;;;;0.60;0.60;;;;;;;-3.24;60.99;98557.09;5064440;28;20017;-70
2023/12/24 05:13:33;;;;;;;0.60;0.60;;;;;;;-3.16;60.78;98553.84;5064277;28;20137;-71
2023/12/24 05:15:59;;;;;;;0.60;0.60;;;;;;;-3.15;60.71;98553.91;5046484;28;20507;-70
2023/12/24 05:18:24;;;;;;;0.60;0.60;;;;;;;-3.13;60.55;98551.38;5064196;28;20029;-71
2023/12/24 05:20:50;;;;;;;0.70;0.70;;;;;;;-3.21;61.06;98550.38;5064261;28;20029;-70
2023/12/24 05:23:16;;;;;;;0.60;0.60;;;;;;;-3.27;61.37;98561.25;5064364;28;20029;-72
2023/12/24 05:25:42;;;;;;;0.52;0.52;;;;;;;-3.20;61.01;98557.16;5046454;28;20412;-71
2023/12/24 05:28:09;;;;;;;0.60;0.60;;;;;;;-3.21;61.44;98558.84;5064002;28;20024;-71
2023/12/24 05:30:34;;;;;;;0.60;0.60;;;;;;;-3.06;60.69;98550.63;5064170;28;20051;-71
2023/12/24 05:33:00;;;;;;;0.60;0.60;;;;;;;-2.97;60.34;98546.53;5064170;28;20021;-71
2023/12/24 05:35:25;;;;;;;0.60;0.60;;;;;;;-3.01;60.44;98540.56;5064339;28;20025;-71
2023/12/24 05:37:51;;;;;;;0.63;0.63;;;;;;;-3.00;60.67;98550.75;5046413;28;20028;-71
2023/12/24 05:40:16;;;;;;;0.77;0.77;;;;;;;-2.92;60.54;98543.25;5046120;28;20029;-70
2023/12/24 05:42:42;;;;;;;0.60;0.60;;;;;;;-2.92;59.95;98528.00;5064010;28;20035;-73
2023/12/24 05:45:10;;;;;;;0.70;0.70;;;;;;;-3.01;60.43;98536.34;5046997;28;20036;-70
2023/12/24 05:47:36;;;;;;;0.60;0.60;;;;;;;-3.10;60.96;98538.72;5067716;28;20032;-72
2023/12/24 05:50:04;;;;;;;0.60;0.60;;;;;;;-3.16;61.48;98531.00;5067711;28;20025;-71
2023/12/24 05:52:29;;;;;;;0.70;0.70;;;;;;;-3.04;61.61;98540.50;5067640;28;20024;-70
2023/12/24 05:54:55;;;;;;;0.60;0.60;;;;;;;-3.07;61.33;98528.63;5049514;28;20021;-71
2023/12/24 05:57:20;;;;;;;0.60;0.60;;;;;;;-3.17;61.90;98521.69;5067277;28;20178;-71
2023/12/24 05:59:46;;;;;;;0.60;0.60;;;;;;;-3.17;62.12;98527.63;5067531;28;20029;-71
2023/12/24 06:02:11;;;;;;;0.60;0.60;;;;;;;-3.21;62.59;98519.94;5067296;28;20029;-71
2023/12/24 06:04:36;;;;;;;0.60;0.60;;;;;;;-3.35;63.38;98507.84;5067278;28;20116;-71
2023/12/24 06:07:04;;;;;;;0.70;0.70;;;;;;;-3.25;63.67;98501.25;5067291;28;20024;-71
2023/12/24 06:09:30;;;;;;;0.63;0.63;;;;;;;-3.27;63.55;98493.59;5049299;28;20025;-71
2023/12/24 06:11:55;;;;;;;0.70;0.70;;;;;;;-3.24;63.89;98500.41;5067294;28;20059;-71
2023/12/24 06:14:20;;;;;;;0.60;0.60;;;;;;;-3.26;64.29;98492.75;5066931;28;20025;-71
2023/12/24 06:16:46;;;;;;;0.60;0.60;;;;;;;-3.28;64.69;98473.28;5067301;28;20115;-71
2023/12/24 06:19:11;;;;;;;0.60;0.60;;;;;;;-3.15;64.83;98479.41;5066945;28;20033;-71
2023/12/24 06:21:37;;;;;;;0.60;0.60;;;;;;;-3.14;64.94;98473.50;5067007;28;20422;-71
2023/12/24 06:24:02;;;;;;;0.60;0.60;;;;;;;-3.03;64.50;98471.97;5066968;28;20031;-71
2023/12/24 06:26:27;;;;;;;0.60;0.60;;;;;;;-2.98;64.42;98477.13;5067107;28;20024;-72
2023/12/24 06:28:53;;;;;;;0.50;0.50;;;;;;;-2.98;64.77;98472.03;5066768;28;20063;-71
2023/12/24 06:31:20;;;;;;;0.60;0.60;;;;;;;-3.00;64.56;98454.25;5048969;28;20048;-72
2023/12/24 06:33:45;;;;;;;0.50;0.50;;;;;;;-2.98;64.73;98451.72;5066682;28;20385;-71
2023/12/24 06:36:11;;;;;;;0.60;0.60;;;;;;;-2.97;65.04;98453.44;5066932;28;20476;-71
2023/12/24 06:38:36;;;;;;;0.60;0.60;;;;;;;-2.89;64.73;98458.66;5066690;28;20108;-71
2023/12/24 06:41:03;;;;;;;0.63;0.63;;;;;;;-2.78;64.09;98453.72;5066610;28;20060;-71
2023/12/24 06:43:28;;;;;;;0.60;0.60;;;;;;;-2.78;64.23;98451.19;5048500;28;20044;-71
2023/12/24 06:45:53;;;;;;;0.70;0.70;;;;;;;-2.70;64.25;98451.28;5066700;28;20032;-71
2023/12/24 06:48:19;;;;;;;0.60;0.60;;;;;;;-2.78;64.73;98443.56;5048526;28;20031;-71
2023/12/24 06:50:44;;;;;;;0.57;0.57;;;;;;;-2.82;64.41;98427.41;5048593;28;20121;-71
2023/12/24 06:53:09;;;;;;;0.60;0.60;;;;;;;-2.77;64.96;98448.66;5066524;28;20025;-71
2023/12/24 06:55:35;;;;;;;0.60;0.60;;;;;;;-2.81;65.13;98439.28;5066260;28;20045;-72
2023/12/24 06:58:02;;;;;;;0.60;0.60;;;;;;;-2.78;65.53;98439.31;5066188;28;20028;-71
2023/12/24 07:00:28;;;;;;;0.60;0.60;;;;;;;-2.75;65.33;98429.19;5048274;28;20056;-72
2023/12/24 07:02:53;;;;;;;0.57;0.57;;;;;;;-2.74;65.58;98422.44;5066331;28;20025;-71
2023/12/24 07:05:18;;;;;;;0.60;0.60;;;;;;;-2.75;66.01;98418.19;5048337;28;20021;-72
2023/12/24 07:07:44;;;;;;;2.05;1.95;;;;;;;-2.78;66.26;98406.28;5066296;28;20420;-73
2023/12/24 07:10:09;;;;;;;0.50;0.50;;;;;;;-2.75;66.46;98408.88;5048363;28;20051;-71
2023/12/24 07:12:35;;;;;;;0.55;0.55;;;;;;;-2.74;66.19;98395.34;5066028;28;20021;-70
2023/12/24 07:15:01;;;;;;;0.60;0.60;;;;;;;-2.62;66.29;98414.97;5066194;28;20048;-72
2023/12/24 07:17:26;;;;;;;0.50;0.50;;;;;;;-2.55;66.29;98410.81;5048080;28;20021;-71
2023/12/24 07:19:51;;;;;;;0.60;0.60;;;;;;;-2.44;66.21;98412.63;5065830;28;20021;-71
2023/12/24 07:22:17;;;;;;;0.70;0.70;;;;;;;-2.53;66.60;98393.91;5047892;28;20503;-71
2023/12/24 07:24:43;;;;;;;0.60;0.60;;;;;;;-2.43;66.76;98391.47;5047902;28;20461;-70
2023/12/24 07:27:08;;;;;;;0.60;0.60;;;;;;;-2.41;67.03;98399.97;5065822;28;20065;-70
2023/12/24 07:29:34;;;;;;;0.60;0.60;;;;;;;-2.37;67.31;98381.38;5065501;28;20076;-71
2023/12/24 07:31:59;;;;;;;0.50;0.50;;;;;;;-2.45;67.90;98377.91;5047608;28;20048;-69
2023/12/24 07:34:25;;;;;;;0.50;0.50;;;;;;;-2.30;67.92;98384.84;5065664;28;20029;-70
2023/12/24 07:36:50;;;;;;;0.60;0.60;;;;;;;-2.31;68.20;98375.50;5065658;28;20021;-71
2023/12/24 07:39:15;;;;;;;0.60;0.60;;;;;;;-2.35;68.32;98361.94;5065440;28;20021;-71
2023/12/24 07:41:42;;;;;;;0.60;0.60;;;;;;;-2.18;68.48;98374.81;5065586;28;20029;-72
2023/12/24 07:44:09;;;;;;;0.50;0.50;;;;;;;-2.12;68.72;98385.03;5047276;28;20199;-70
2023/12/24 07:46:35;;;;;;;0.60;0.60;;;;;;;-2.12;68.61;98358.75;5065570;28;20086;-72
2023/12/24 07:49:00;;;;;;;0.50;0.50;;;;;;;-1.98;68.56;98365.66;5065335;28;20469;-72
2023/12/24 07:51:26;;;;;;;0.50;0.50;;;;;;;-1.85;68.47;98362.38;5065434;28;20079;-73
2023/12/24 07:53:52;;;;;;;0.50;0.50;;;;;;;-1.86;68.38;98350.50;5065421;28;20044;-71
2023/12/24 07:56:17;;;;;;;0.55;0.55;;;;;;;-2.01;68.92;98336.81;5065586;28;20025;-72
2023/12/24 07:58:43;;;;;;;0.60;0.60;;;;;;;-2.04;69.05;98348.66;5047277;28;20086;-72
2023/12/24 08:01:08;;;;;;;0.50;0.50;;;;;;;-2.08;69.90;98335.06;5065282;28;20027;-71
2023/12/24 08:03:33;;;;;;;0.60;0.60;;;;;;;-1.95;70.21;98336.00;5065425;28;20059;-71
2023/12/24 08:05:59;;;;;;;0.60;0.60;;;;;;;-1.92;70.20;98335.19;5065314;28;20028;-71
2023/12/24 08:08:24;;;;;;;0.70;0.70;;;;;;;-1.91;70.66;98335.22;5046598;28;20495;-71
2023/12/24 08:10:49;;;;;;;0.50;0.50;;;;;;;-1.94;71.07;98321.63;5047129;28;20017;-72
2023/12/24 08:13:15;;;;;;;0.60;0.60;;;;;;;-1.96;70.93;98286.00;5047172;28;20031;-71
2023/12/24 08:15:40;;;;;;;0.60;0.60;;;;;;;-1.84;71.26;98307.28;5065027;28;20036;-72
2023/12/24 08:18:06;;;;;;;0.52;0.52;;;;;;;-1.84;71.66;98310.69;5065069;28;20029;-72
2023/12/24 08:20:32;;;;;;;0.50;0.50;;;;;;;-1.84;71.75;98309.81;5064996;28;20056;-72
2023/12/24 08:22:57;;;;;;;0.50;0.50;;;;;;;-1.84;72.00;98299.66;5065382;28;20013;-71
2023/12/24 08:25:22;;;;;;;0.50;0.50;;;;;;;-1.83;72.41;98303.88;5064860;28;20025;-73
2023/12/24 08:27:48;;;;;;;0.50;0.50;;;;;;;-1.81;72.59;98308.16;5064975;28;20441;-71
2023/12/24 08:30:13;;;;;;;0.52;0.52;;;;;;;-1.77;73.04;98298.84;5064846;28;20516;-71
2023/12/24 08:32:39;;;;;;;0.70;0.70;;;;;;;-1.75;73.19;98304.81;5064792;28;20025;-72
2023/12/24 08:35:04;;;;;;;0.50;0.50;;;;;;;-1.63;73.08;98283.69;5046937;28;20021;-71
2023/12/24 08:37:30;;;;;;;0.40;0.40;;;;;;;-1.77;73.50;98281.91;5065031;28;20036;-72
2023/12/24 08:39:55;;;;;;;0.57;0.57;;;;;;;-1.70;73.82;98287.88;5064753;28;20028;-72
2023/12/24 08:42:21;;;;;;;0.50;0.50;;;;;;;-1.71;74.24;98275.16;5064836;28;20088;-71
2023/12/24 08:44:46;;;;;;;0.60;0.60;;;;;;;-1.60;74.30;98271.00;5046643;28;20053;-72
2023/12/24 08:47:11;;;;;;;0.57;0.57;;;;;;;-1.59;74.36;98261.66;5046810;28;20025;-71
2023/12/24 08:49:36;;;;;;;0.60;0.60;;;;;;;-1.64;74.71;98259.94;5064811;28;20021;-72
2023/12/24 08:52:02;;;;;;;0.50;0.50;;;;;;;-1.63;75.07;98256.53;5064982;28;20025;-72
2023/12/24 08:54:27;;;;;;;0.55;0.55;;;;;;;-1.51;75.08;98250.69;5064343;28;20032;-72
2023/12/24 08:56:53;;;;;;;0.52;0.52;;;;;;;-1.54;75.49;98230.31;5046266;28;20021;-70
2023/12/24 08:59:18;;;;;;;0.50;0.50;;;;;;;-1.58;75.70;98222.66;5064434;28;20088;-72
2023/12/24 09:01:44;;;;;;;0.50;0.50;;;;;;;-1.58;76.04;98215.03;5064683;28;20029;-71
2023/12/24 09:04:09;;;;;;;0.50;0.50;;;;;;;-1.55;76.60;98226.03;5046674;28;20055;-72
2023/12/24 09:06:36;;;;;;;0.50;0.50;;;;;;;-1.50;76.93;98233.69;5064636;28;20445;-72
2023/12/24 09:09:03;;;;;;;0.50;0.50;;;;;;;-1.53;77.04;98218.41;5046367;28;20036;-68
2023/12/24 09:11:28;;;;;;;0.55;0.55;;;;;;;-1.40;76.99;98222.75;5064575;28;20020;-71
2023/12/24 09:13:53;;;;;;;0.60;0.60;;;;;;;-1.41;77.21;98202.38;5064222;28;20024;-71
2023/12/24 09:16:19;;;;;;;0.50;0.50;;;;;;;-1.40;77.58;98206.59;5064682;28;20024;-72
2023/12/24 09:18:44;;;;;;;0.50;0.50;;;;;;;-1.39;77.91;98198.16;5046739;28;20021;-71
2023/12/24 09:21:09;;;;;;;0.50;0.50;;;;;;;-1.35;78.19;98199.00;5068565;28;20025;-70
2023/12/24 09:23:36;;;;;;;0.50;0.50;;;;;;;-1.42;78.37;98198.13;5068038;28;20049;-71
2023/12/24 09:26:02;;;;;;;0.60;0.60;;;;;;;-1.31;78.59;98188.81;5050611;28;20025;-72
2023/12/24 09:28:28;;;;;;;0.50;0.50;;;;;;;-1.38;78.81;98192.19;5067945;28;20021;-71
2023/12/24 09:30:53;;;;;;;0.50;0.50;;;;;;;-1.33;79.02;98177.81;5067906;28;20029;-71
2023/12/24 09:33:18;;;;;;;0.60;0.60;;;;;;;-1.40;79.42;98181.16;5067864;28;20075;-71
2023/12/24 09:35:44;;;;;;;0.60;0.60;;;;;;;-1.27;79.35;98177.81;5067124;28;20025;-71
2023/12/24 09:38:11;;;;;;;0.50;0.50;;;;;;;-1.37;79.46;98168.44;5068102;28;20021;-71
2023/12/24 09:40:37;;;;;;;0.50;0.50;;;;;;;-1.36;79.64;98165.06;5068097;28;20084;-70
2023/12/24 09:43:03;;;;;;;0.50;0.50;;;;;;;-1.26;79.67;98173.56;5067850;28;20048;-72
2023/12/24 09:45:32;;;;;;;0.50;0.50;;;;;;;-1.42;80.01;98152.31;5068088;28;20104;-73
2023/12/24 09:47:57;;;;;;;0.50;0.50;;;;;;;-1.35;80.30;98159.13;5068105;28;20040;-71
2023/12/24 09:50:22;;;;;;;0.60;0.60;;;;;;;-1.35;80.86;98151.47;5049586;28;20063;-72
2023/12/24 09:52:48;;;;;;;0.50;0.50;;;;;;;-1.20;80.97;98148.16;5067894;28;20023;-72
2023/12/24 09:55:13;;;;;;;0.50;0.50;;;;;;;-1.31;81.33;98134.53;5067646;28;20036;-69
2023/12/24 09:57:39;;;;;;;0.57;0.57;;;;;;;-1.36;81.99;98124.34;5067764;28;20028;-72
2023/12/24 10:00:08;;;;;;;0.50;0.50;;;;;;;-1.27;82.46;98121.81;5050068;28;20020;-75
2023/12/24 10:02:33;;;;;;;0.50;0.50;;;;;;;-1.39;82.93;98111.59;5067843;28;20025;-70
2023/12/24 10:05:00;;;;;;;0.50;0.50;;;;;;;-1.42;84.00;98111.59;5049558;28;20024;-71
2023/12/24 10:07:37;;;;;;;0.50;0.50;;;;;;;-1.31;84.35;98109.91;5068045;28;20084;-73
2023/12/24 10:10:03;;;;;;;0.80;0.80;;;;;;;-1.50;84.86;98091.19;5067599;28;20092;-72
2023/12/24 10:12:28;;;;;;;0.50;0.50;;;;;;;-1.40;85.24;98081.88;5067583;28;20021;-72
2023/12/24 10:14:58;;;;;;;0.50;0.50;;;;;;;-1.38;85.17;98082.75;5067376;28;20020;-72
2023/12/24 10:17:36;;;;;;;0.50;0.50;;;;;;;-1.34;85.40;98065.78;5067549;28;20025;-73
2023/12/24 10:20:10;;;;;;;0.60;0.60;;;;;;;-1.32;85.67;98064.94;5067349;28;20017;-71
2023/12/24 10:22:36;;;;;;;0.65;0.65;;;;;;;-1.48;86.39;98063.19;5067545;28;20104;-74
2023/12/24 10:25:03;;;;;;;0.60;0.60;;;;;;;-1.42;86.38;98046.25;5067308;28;20104;-73
2023/12/24 10:27:29;;;;;;;0.50;0.50;;;;;;;-1.17;86.22;98048.84;5067328;28;20047;-72
2023/12/24 10:30:08;;;;;;;0.50;0.50;;;;;;;-1.27;86.70;98042.03;5067041;28;20053;-72
2023/12/24 10:32:33;;;;;;;1.35;1.25;;;;;;;-1.43;87.04;98006.38;5048553;28;20024;-75
2023/12/24 10:34:58;;;;;;;0.50;0.50;;;;;;;-1.66;87.23;97973.28;5067210;28;20029;-72
2023/12/24 10:37:29;;;;;;;0.60;0.60;;;;;;;-1.32;87.84;98010.63;5067529;28;20108;-71
2023/12/24 10:40:12;;;;;;;0.50;0.50;;;;;;;-1.22;88.37;98007.25;5067104;28;20021;-74
2023/12/24 10:42:39;;;;;;;0.50;0.50;;;;;;;-1.28;88.80;98005.53;5067601;28;20021;-71
2023/12/24 10:45:05;;;;;;;0.60;0.60;;;;;;;-1.30;89.18;98009.78;5066747;28;20282;-73
2023/12/24 10:47:30;;;;;;;0.52;0.52;;;;;;;-1.23;89.12;97995.34;5066912;28;20025;-72
2023/12/24 10:49:56;;;;;;;0.50;0.50;;;;;;;-1.16;89.27;97983.47;5048874;28;20106;-72
2023/12/24 10:52:21;;;;;;;0.50;0.50;;;;;;;-1.16;89.31;97970.72;5048743;28;20468;-71
2023/12/24 10:54:47;;;;;;;0.60;0.60;;;;;;;-1.07;88.95;97967.34;5066585;28;20051;-71
2023/12/24 10:57:21;;;;;;;0.50;0.50;;;;;;;-1.00;89.08;97961.38;5048765;28;20020;-70
2023/12/24 11:00:06;;;;;;;0.50;0.50;;;;;;;-1.04;89.92;97949.53;5067701;28;20536;-71
2023/12/24 11:02:33;;;;;;;0.50;0.50;;;;;;;-1.04;90.33;97927.44;5066536;28;20025;-70
2023/12/24 11:04:58;;;;;;;0.60;0.60;;;;;;;-1.03;90.85;97911.31;5066617;28;20445;-69
2023/12/24 11:07:44;;;;;;;0.50;0.50;;;;;;;-1.02;91.34;97912.13;5048524;28;20033;-70
2023/12/24 11:10:36;;;;;;;0.50;0.50;;;;;;;-0.83;91.13;97900.22;5037759;28;20032;-70
2023/12/24 11:13:02;;;;;;;0.50;0.50;;;;;;;-0.88;91.57;97884.94;5048176;28;20128;-69
2023/12/24 11:15:42;;;;;;;0.60;0.60;;;;;;;-0.87;92.41;97875.59;5066460;28;20024;-69
2023/12/24 11:18:08;;;;;;;0.57;0.57;;;;;;;-0.71;92.24;97857.72;5066432;28;20021;-68
2023/12/24 11:20:41;;;;;;;0.50;0.50;;;;;;;-0.50;91.85;97847.41;5047833;28;20087;-68
2023/12/24 11:23:07;;;;;;;0.50;0.50;;;;;;;-0.40;91.67;97832.09;5066001;28;20035;-68
2023/12/24 11:25:36;;;;;;;0.50;0.50;;;;;;;-0.40;92.15;97817.63;5066322;28;20100;-66
2023/12/24 11:28:01;;;;;;;12.10;10.13;;;;;;;-0.26;92.19;97819.25;5065842;28;20031;-67
2023/12/24 11:30:27;;;;;;;0.50;0.50;;;;;;;-0.30;92.75;97805.69;5048127;28;20044;-67